Time;durP1;ratioP1;P1;durP2;ratioP2;P2;SDS_P1;SDS_P2;PMS_P1;PMS_P2;Temp;Humidity;BMP_temperature;BMP_pressure;BME280_temperature;BME280_humidity;BME280_pressure;Samples;Min_cycle;Max_cycle;Signal;HPM_P1;HPM_P2
2023/05/11 00:00:34;;;;;;;37.15;29.98;;;11.00;99.90;;;;;;5058682;28;20043;-77
2023/05/11 00:03:00;;;;;;;36.10;28.80;;;11.00;99.90;;;;;;5057554;28;20040;-77
2023/05/11 00:05:25;;;;;;;40.53;30.25;;;11.00;99.90;;;;;;5074658;28;20379;-77
2023/05/11 00:07:51;;;;;;;40.35;31.10;;;11.10;99.90;;;;;;5074440;28;20041;-77
2023/05/11 00:10:17;;;;;;;39.38;30.65;;;11.10;99.90;;;;;;5058546;28;20090;-77
2023/05/11 00:12:42;;;;;;;40.35;30.33;;;11.00;99.90;;;;;;5057463;28;20041;-77
2023/05/11 00:15:08;;;;;;;41.53;30.92;;;11.10;99.90;;;;;;5074773;28;20051;-78
2023/05/11 00:17:34;;;;;;;38.28;30.17;;;11.00;99.90;;;;;;5057812;28;20058;-77
2023/05/11 00:20:03;;;;;;;40.70;31.58;;;11.00;99.90;;;;;;5058299;28;20032;-77
2023/05/11 00:22:28;;;;;;;41.72;30.80;;;11.00;99.90;;;;;;5058180;28;20478;-77
2023/05/11 00:24:56;;;;;;;44.75;31.58;;;11.10;99.90;;;;;;5058659;28;20050;-78
2023/05/11 00:27:22;;;;;;;42.25;31.13;;;10.90;99.90;;;;;;5073842;28;20079;-77
2023/05/11 00:29:47;;;;;;;42.22;31.58;;;11.00;99.90;;;;;;5058365;28;20426;-77
2023/05/11 00:32:13;;;;;;;43.83;32.75;;;11.00;99.90;;;;;;5070408;28;20510;-77
2023/05/11 00:34:39;;;;;;;41.22;32.13;;;10.90;99.90;;;;;;5080218;28;20047;-77
2023/05/11 00:37:04;;;;;;;42.85;32.03;;;11.00;99.90;;;;;;5073643;28;20044;-77
2023/05/11 00:39:30;;;;;;;41.92;32.22;;;10.90;99.90;;;;;;5058270;28;20036;-77
2023/05/11 00:41:55;;;;;;;48.38;34.08;;;11.00;99.90;;;;;;5062216;28;20044;-77
2023/05/11 00:44:21;;;;;;;48.60;34.05;;;10.90;99.90;;;;;;5073263;28;20048;-77
2023/05/11 00:46:47;;;;;;;57.75;35.92;;;11.00;99.90;;;;;;5072845;28;20055;-77
2023/05/11 00:49:16;;;;;;;47.97;33.90;;;10.90;99.90;;;;;;5067840;28;20414;-76
2023/05/11 00:51:42;;;;;;;52.30;35.47;;;10.90;99.90;;;;;;5068468;28;20048;-77
2023/05/11 00:54:14;;;;;;;43.55;32.08;;;10.90;99.90;;;;;;5072593;28;20049;-77
2023/05/11 00:56:42;;;;;;;54.58;35.50;;;10.90;99.90;;;;;;5072848;28;20411;-77
2023/05/11 00:59:08;;;;;;;71.70;39.78;;;10.90;99.90;;;;;;5067720;28;20037;-76
2023/05/11 01:01:34;;;;;;;48.28;34.88;;;10.90;99.90;;;;;;5068824;28;20082;-77
2023/05/11 01:04:02;;;;;;;52.60;35.72;;;10.90;99.90;;;;;;5083003;28;20097;-77
2023/05/11 01:06:41;;;;;;;56.03;35.38;;;10.90;99.90;;;;;;5072002;28;20057;-77
2023/05/11 01:09:20;;;;;;;49.85;35.92;;;10.90;99.90;;;;;;5053557;28;20045;-76
2023/05/11 01:11:52;;;;;;;62.83;37.40;;;10.80;99.90;;;;;;5057505;28;20044;-77
2023/05/11 01:14:43;;;;;;;86.05;39.20;;;10.90;99.90;;;;;;5072191;28;20102;-77
2023/05/11 01:17:17;;;;;;;50.45;35.03;;;10.80;99.90;;;;;;5052625;28;20037;-76
2023/05/11 01:19:55;;;;;;;56.88;35.22;;;10.80;99.90;;;;;;5053165;28;20043;-77
2023/05/11 01:22:53;;;;;;;53.78;34.15;;;10.80;99.90;;;;;;5046630;28;20043;-77
2023/05/11 01:25:46;;;;;;;58.60;34.92;;;10.80;99.90;;;;;;5062190;28;20057;-77
2023/05/11 01:28:36;;;;;;;69.32;37.83;;;10.80;99.90;;;;;;5066242;28;20513;-77
2023/05/11 01:31:08;;;;;;;92.40;39.20;;;10.70;99.90;;;;;;5040390;28;20452;-77
2023/05/11 01:33:37;;;;;;;64.45;36.22;;;10.70;99.90;;;;;;5071641;28;20196;-77
2023/05/11 01:36:07;;;;;;;80.53;38.88;;;10.70;99.90;;;;;;5048467;28;20040;-77
2023/05/11 01:38:37;;;;;;;95.85;42.17;;;10.70;99.90;;;;;;5072878;28;20044;-77
2023/05/11 01:41:21;;;;;;;81.28;39.53;;;10.80;99.90;;;;;;5071528;28;20051;-77
2023/05/11 01:43:53;;;;;;;78.25;40.00;;;10.70;99.90;;;;;;5054900;28;20060;-77
2023/05/11 01:46:22;;;;;;;48.80;33.30;;;10.70;99.90;;;;;;5072565;28;20063;-77
2023/05/11 01:48:51;;;;;;;58.70;34.50;;;10.60;99.90;;;;;;5054920;28;20291;-77
2023/05/11 01:51:18;;;;;;;48.65;33.45;;;10.70;99.90;;;;;;5055308;28;20044;-77
2023/05/11 01:53:45;;;;;;;62.25;36.15;;;10.70;99.90;;;;;;5052856;28;20144;-77
2023/05/11 01:56:11;;;;;;;135.95;47.90;;;10.70;99.90;;;;;;5055637;28;20064;-77
2023/05/11 01:58:39;;;;;;;52.97;36.20;;;10.70;99.90;;;;;;5071605;28;20376;-77
2023/05/11 02:01:05;;;;;;;55.05;37.30;;;10.70;99.90;;;;;;5071405;28;20564;-77
2023/05/11 02:03:33;;;;;;;52.55;35.25;;;10.80;99.90;;;;;;5072168;28;20079;-78
2023/05/11 02:06:01;;;;;;;61.10;38.53;;;10.80;99.90;;;;;;5055588;28;20063;-77
2023/05/11 02:08:30;;;;;;;63.75;38.00;;;10.80;99.90;;;;;;5089330;28;20124;-78
2023/05/11 02:10:57;;;;;;;64.65;37.95;;;10.70;99.90;;;;;;5067141;28;20032;-77
2023/05/11 02:13:23;;;;;;;67.82;39.35;;;10.80;99.90;;;;;;5070470;28;20037;-77
2023/05/11 02:15:52;;;;;;;68.93;38.90;;;10.80;99.90;;;;;;5054363;28;20048;-77
2023/05/11 02:18:19;;;;;;;70.50;39.10;;;10.80;99.90;;;;;;5072946;28;20270;-78
2023/05/11 02:20:46;;;;;;;125.18;44.28;;;10.80;99.90;;;;;;5069069;28;20047;-77
2023/05/11 02:23:12;;;;;;;73.50;39.50;;;10.80;99.90;;;;;;5063135;28;20443;-77
2023/05/11 02:25:39;;;;;;;95.75;44.85;;;10.70;99.90;;;;;;5052326;28;20041;-78
2023/05/11 02:28:06;;;;;;;78.68;39.55;;;10.80;99.90;;;;;;5069175;28;20491;-77
2023/05/11 02:30:38;;;;;;;45.08;33.92;;;10.80;99.90;;;;;;5053311;28;20044;-78
2023/05/11 02:33:06;;;;;;;84.82;41.28;;;10.90;99.90;;;;;;5051806;28;20504;-77
2023/05/11 02:35:39;;;;;;;65.07;39.03;;;10.80;99.90;;;;;;5068104;28;20040;-77
2023/05/11 02:38:07;;;;;;;79.38;43.83;;;10.70;99.90;;;;;;5072775;28;20032;-77
2023/05/11 02:40:41;;;;;;;69.13;39.60;;;10.80;99.90;;;;;;5072132;28;20041;-77
2023/05/11 02:43:10;;;;;;;73.82;42.15;;;10.80;99.90;;;;;;5041873;28;20048;-77
2023/05/11 02:45:37;;;;;;;67.93;41.20;;;10.80;99.90;;;;;;5055389;28;20041;-77
2023/05/11 02:48:18;;;;;;;67.72;41.60;;;10.80;99.90;;;;;;5072686;28;20047;-77
2023/05/11 02:50:44;;;;;;;73.82;43.85;;;10.80;99.90;;;;;;5063164;28;20064;-77
2023/05/11 02:53:15;;;;;;;62.20;39.17;;;10.80;99.90;;;;;;5053558;28;20492;-77
2023/05/11 02:55:41;;;;;;;93.53;43.00;;;10.80;99.90;;;;;;5072446;28;20041;-78
2023/05/11 02:58:07;;;;;;;93.82;44.25;;;10.80;99.90;;;;;;5088803;28;20045;-77
2023/05/11 03:00:33;;;;;;;89.13;43.92;;;10.80;99.90;;;;;;5072087;28;20037;-77
2023/05/11 03:02:59;;;;;;;100.10;44.58;;;10.80;99.90;;;;;;5067253;28;20037;-77
2023/05/11 03:05:25;;;;;;;77.43;42.10;;;10.80;99.90;;;;;;5055037;28;20066;-77
2023/05/11 03:07:55;;;;;;;69.70;41.83;;;10.80;99.90;;;;;;5071793;28;20409;-78
2023/05/11 03:10:21;;;;;;;69.90;42.10;;;10.80;99.90;;;;;;5072036;28;20040;-77
2023/05/11 03:12:47;;;;;;;66.35;41.72;;;10.80;99.90;;;;;;5054932;28;20043;-78
2023/05/11 03:15:14;;;;;;;73.15;42.92;;;10.80;99.90;;;;;;5066710;28;20033;-77
2023/05/11 03:17:41;;;;;;;77.53;42.40;;;10.80;99.90;;;;;;5053689;28;20391;-77
2023/05/11 03:20:08;;;;;;;100.35;46.38;;;10.90;99.90;;;;;;5088444;28;20040;-77
2023/05/11 03:22:36;;;;;;;102.47;47.03;;;10.80;99.90;;;;;;5067194;28;20036;-76
2023/05/11 03:25:03;;;;;;;122.07;49.58;;;10.90;99.90;;;;;;5071341;28;20047;-76
2023/05/11 03:27:30;;;;;;;101.22;48.53;;;10.90;99.90;;;;;;5071372;28;20526;-77
2023/05/11 03:29:57;;;;;;;91.05;46.75;;;10.80;99.90;;;;;;5071308;28;20170;-76
2023/05/11 03:32:23;;;;;;;156.02;51.05;;;10.90;99.90;;;;;;5053168;28;20399;-77
2023/05/11 03:34:48;;;;;;;95.00;46.92;;;10.90;99.90;;;;;;5045303;28;20515;-76
2023/05/11 03:37:17;;;;;;;94.40;47.75;;;10.90;99.90;;;;;;5070847;28;20166;-76
2023/05/11 03:39:46;;;;;;;97.50;47.58;;;10.90;99.90;;;;;;5088524;28;20040;-76
2023/05/11 03:42:13;;;;;;;103.45;48.80;;;10.90;99.90;;;;;;5060553;28;20032;-76
2023/05/11 03:44:42;;;;;;;143.63;52.63;;;11.00;99.90;;;;;;5043938;28;20040;-76
2023/05/11 03:47:09;;;;;;;85.53;46.92;;;11.00;99.90;;;;;;5045915;28;20131;-76
2023/05/11 03:49:36;;;;;;;117.50;51.70;;;11.00;99.90;;;;;;5070063;28;20049;-76
2023/05/11 03:52:04;;;;;;;86.18;46.83;;;11.00;99.90;;;;;;5061452;28;20106;-76
2023/05/11 03:54:31;;;;;;;98.82;48.78;;;11.10;99.90;;;;;;5070362;28;20071;-77
2023/05/11 03:56:56;;;;;;;85.82;48.95;;;11.00;99.90;;;;;;5061550;28;20028;-76
2023/05/11 03:59:23;;;;;;;96.50;50.00;;;11.10;99.90;;;;;;5087147;28;20110;-77
2023/05/11 04:01:51;;;;;;;101.05;49.75;;;11.00;99.90;;;;;;5083884;28;20134;-76
2023/05/11 04:04:18;;;;;;;106.65;52.65;;;11.10;99.90;;;;;;5067326;28;20055;-77
2023/05/11 04:06:44;;;;;;;96.03;50.28;;;11.10;99.90;;;;;;5069364;28;20048;-76
2023/05/11 04:09:09;;;;;;;107.53;53.70;;;11.10;99.90;;;;;;5054004;28;20044;-76
2023/05/11 04:11:38;;;;;;;98.15;49.20;;;11.10;99.90;;;;;;5052388;28;20160;-76
2023/05/11 04:14:04;;;;;;;86.28;49.63;;;11.20;99.90;;;;;;5068645;28;20120;-76
2023/05/11 04:16:30;;;;;;;88.13;48.25;;;11.20;99.90;;;;;;5077605;22;20068;-77
2023/05/11 04:18:55;;;;;;;91.93;49.90;;;11.20;99.90;;;;;;5070017;28;20028;-77
2023/05/11 04:21:21;;;;;;;101.88;51.25;;;11.20;99.90;;;;;;5069145;28;20119;-77
2023/05/11 04:23:46;;;;;;;83.20;49.05;;;11.30;99.90;;;;;;5069230;28;20044;-77
2023/05/11 04:26:12;;;;;;;96.93;50.35;;;11.20;99.90;;;;;;5073450;28;20122;-77
2023/05/11 04:28:37;;;;;;;93.47;50.15;;;11.20;99.90;;;;;;5056477;28;20090;-77
2023/05/11 04:31:03;;;;;;;83.80;48.40;;;11.30;99.90;;;;;;5072484;28;20490;-77
2023/05/11 04:33:29;;;;;;;91.93;50.35;;;11.30;99.90;;;;;;5066589;28;20045;-77
2023/05/11 04:35:54;;;;;;;103.15;51.85;;;11.30;99.90;;;;;;5084003;28;20050;-77
2023/05/11 04:38:21;;;;;;;83.55;48.60;;;11.30;99.90;;;;;;5074203;28;20050;-77
2023/05/11 04:40:47;;;;;;;90.90;49.58;;;11.40;99.90;;;;;;5072918;28;20036;-77
2023/05/11 04:43:16;;;;;;;74.03;45.97;;;11.40;99.90;;;;;;5078000;28;20040;-76
2023/05/11 04:45:51;;;;;;;76.65;47.35;;;11.40;99.90;;;;;;5084683;28;20036;-76
2023/05/11 04:48:17;;;;;;;79.18;47.63;;;11.50;99.90;;;;;;5077067;28;20044;-76
2023/05/11 04:50:42;;;;;;;115.78;51.10;;;11.40;99.90;;;;;;5056667;28;20032;-76
2023/05/11 04:53:09;;;;;;;76.38;46.30;;;11.40;99.90;;;;;;5070487;28;20042;-76
2023/05/11 04:55:34;;;;;;;83.72;48.42;;;11.50;99.90;;;;;;5077565;28;20103;-77
2023/05/11 04:58:00;;;;;;;72.72;45.22;;;11.50;99.90;;;;;;5079569;28;20032;-77
2023/05/11 05:00:25;;;;;;;68.18;43.65;;;11.50;99.90;;;;;;5070970;28;20100;-76
2023/05/11 05:02:51;;;;;;;71.95;43.33;;;11.50;99.90;;;;;;5051877;28;20045;-77
2023/05/11 05:05:17;;;;;;;75.00;45.28;;;11.50;99.90;;;;;;5055376;28;20402;-77
2023/05/11 05:07:43;;;;;;;63.28;42.72;;;11.50;99.90;;;;;;5070789;28;20036;-77
2023/05/11 05:10:10;;;;;;;68.25;42.78;;;11.50;99.90;;;;;;5072524;28;20504;-76
2023/05/11 05:12:36;;;;;;;82.47;46.03;;;11.50;99.90;;;;;;5064983;28;20405;-77
2023/05/11 05:15:03;;;;;;;83.93;47.25;;;11.50;99.90;;;;;;5072039;28;20036;-77
2023/05/11 05:17:28;;;;;;;96.07;48.08;;;11.50;99.90;;;;;;5049230;28;20041;-76
2023/05/11 05:19:54;;;;;;;78.53;45.97;;;11.50;99.90;;;;;;5049534;28;20051;-77
2023/05/11 05:22:20;;;;;;;81.13;46.13;;;11.50;99.90;;;;;;5068600;28;20031;-77
2023/05/11 05:24:45;;;;;;;84.18;46.17;;;11.50;99.90;;;;;;5072277;28;20036;-77
2023/05/11 05:27:11;;;;;;;113.70;49.50;;;11.50;99.90;;;;;;5054490;28;20032;-77
2023/05/11 05:29:36;;;;;;;100.40;50.00;;;11.50;99.90;;;;;;5055759;28;20042;-77
2023/05/11 05:32:02;;;;;;;87.30;48.53;;;11.50;99.90;;;;;;5070001;28;20051;-76
2023/05/11 05:34:27;;;;;;;90.78;49.28;;;11.50;99.90;;;;;;5067086;28;20045;-77
2023/05/11 05:36:53;;;;;;;82.05;47.35;;;11.50;99.90;;;;;;5079743;28;20039;-78
2023/05/11 05:39:18;;;;;;;141.30;51.33;;;11.50;99.90;;;;;;5071356;28;20445;-76
2023/05/11 05:41:44;;;;;;;145.20;50.45;;;11.50;99.90;;;;;;5071526;28;20090;-76
2023/05/11 05:44:10;;;;;;;113.88;49.42;;;11.50;99.90;;;;;;5056501;28;20044;-76
2023/05/11 05:46:35;;;;;;;89.95;47.78;;;11.50;99.90;;;;;;5068281;28;20067;-77
2023/05/11 05:49:01;;;;;;;103.07;46.92;;;11.60;99.90;;;;;;5072175;28;20041;-76
2023/05/11 05:51:26;;;;;;;148.73;48.90;;;11.60;99.90;;;;;;5054838;28;20572;-77
2023/05/11 05:53:52;;;;;;;164.45;51.58;;;11.60;99.90;;;;;;5079862;28;20445;-77
2023/05/11 05:56:17;;;;;;;129.20;49.42;;;11.60;99.90;;;;;;5071609;28;20037;-78
2023/05/11 05:58:43;;;;;;;160.23;52.38;;;11.60;99.90;;;;;;5071857;28;20517;-78
2023/05/11 06:01:08;;;;;;;116.13;48.38;;;11.60;99.90;;;;;;5061143;28;20033;-78
2023/05/11 06:03:34;;;;;;;247.15;57.38;;;11.50;99.90;;;;;;5068325;28;20041;-78
2023/05/11 06:06:02;;;;;;;300.05;55.88;;;11.50;99.90;;;;;;5071690;28;20040;-79
2023/05/11 06:08:28;;;;;;;405.17;64.18;;;11.50;99.90;;;;;;5062658;28;20235;-78
2023/05/11 06:10:53;;;;;;;172.80;47.50;;;11.50;99.90;;;;;;5074749;28;20043;-79
2023/05/11 06:13:19;;;;;;;393.15;63.20;;;11.50;99.90;;;;;;5087269;28;20047;-78
2023/05/11 06:15:44;;;;;;;338.88;61.45;;;11.50;99.90;;;;;;5070497;28;20033;-77
2023/05/11 06:18:10;;;;;;;90.03;39.25;;;11.50;99.90;;;;;;5062820;28;20041;-78
2023/05/11 06:20:36;;;;;;;121.88;42.33;;;11.50;99.90;;;;;;5068097;28;20127;-77
2023/05/11 06:23:01;;;;;;;68.30;32.08;;;11.50;99.90;;;;;;5091100;28;20040;-77
2023/05/11 06:25:27;;;;;;;69.80;31.52;;;11.50;99.90;;;;;;5091338;28;20401;-77
2023/05/11 06:27:52;;;;;;;78.75;33.85;;;11.50;99.90;;;;;;5090878;28;20040;-77
2023/05/11 06:30:18;;;;;;;92.15;34.03;;;11.40;99.90;;;;;;5091383;28;20131;-77
2023/05/11 06:32:44;;;;;;;79.28;33.25;;;11.40;99.90;;;;;;5091252;28;20456;-77
2023/05/11 06:35:09;;;;;;;70.18;32.65;;;11.40;99.90;;;;;;5091182;28;20032;-77
2023/05/11 06:37:35;;;;;;;131.55;37.90;;;11.40;99.90;;;;;;5091035;28;20066;-77
2023/05/11 06:40:01;;;;;;;96.18;34.65;;;11.40;99.90;;;;;;5091438;28;20071;-77
2023/05/11 06:42:26;;;;;;;89.18;35.80;;;11.40;99.90;;;;;;5091343;28;20173;-77
2023/05/11 06:44:52;;;;;;;87.72;37.25;;;11.40;99.90;;;;;;5091353;28;20039;-77
2023/05/11 06:47:17;;;;;;;97.93;38.55;;;11.40;99.90;;;;;;5090256;28;20126;-77
2023/05/11 06:49:43;;;;;;;88.75;37.28;;;11.40;99.90;;;;;;5090719;28;20040;-77
2023/05/11 06:52:09;;;;;;;82.57;36.65;;;11.40;99.90;;;;;;5090987;28;20470;-77
2023/05/11 06:54:35;;;;;;;136.15;41.28;;;11.40;99.90;;;;;;5090993;28;20040;-77
2023/05/11 06:57:02;;;;;;;72.63;33.55;;;11.40;99.90;;;;;;5073955;28;20080;-77
2023/05/11 06:59:28;;;;;;;76.60;32.80;;;11.40;99.90;;;;;;5073987;28;20036;-76
2023/05/11 07:01:54;;;;;;;99.03;35.17;;;11.40;99.90;;;;;;5090887;28;20044;-77
2023/05/11 07:04:19;;;;;;;94.25;34.92;;;11.30;99.90;;;;;;5090848;28;20177;-76
2023/05/11 07:06:45;;;;;;;103.82;35.75;;;11.30;99.90;;;;;;5073886;28;20397;-77
2023/05/11 07:09:10;;;;;;;88.13;34.28;;;11.30;99.90;;;;;;5090830;28;20504;-77
2023/05/11 07:11:36;;;;;;;117.97;36.22;;;11.30;99.90;;;;;;5090644;28;20047;-77
2023/05/11 07:14:02;;;;;;;94.00;34.08;;;11.40;99.90;;;;;;5090553;28;20050;-77
2023/05/11 07:16:28;;;;;;;102.65;33.15;;;11.40;99.90;;;;;;5090287;28;20406;-77
2023/05/11 07:18:53;;;;;;;106.18;35.53;;;11.40;99.90;;;;;;5090604;28;20043;-77
2023/05/11 07:21:21;;;;;;;111.38;34.47;;;11.40;99.90;;;;;;5073809;28;20568;-77
2023/05/11 07:23:47;;;;;;;66.47;28.63;;;11.40;99.90;;;;;;5090581;28;20532;-76
2023/05/11 07:26:12;;;;;;;62.28;26.75;;;11.50;99.90;;;;;;5090135;28;20493;-77
2023/05/11 07:28:38;;;;;;;62.05;25.35;;;11.50;99.90;;;;;;5090714;28;20058;-76
2023/05/11 07:31:04;;;;;;;51.55;22.70;;;11.50;99.90;;;;;;5090822;28;20044;-76
2023/05/11 07:33:30;;;;;;;39.67;19.30;;;11.60;99.90;;;;;;5090532;28;20044;-77
2023/05/11 07:35:56;;;;;;;39.42;18.85;;;11.60;99.90;;;;;;5090117;28;20042;-76
2023/05/11 07:38:22;;;;;;;44.00;19.05;;;11.70;99.90;;;;;;5090425;28;20387;-76
2023/05/11 07:40:47;;;;;;;33.13;16.58;;;11.70;99.90;;;;;;5090570;28;20040;-76
2023/05/11 07:43:13;;;;;;;23.92;14.32;;;11.90;99.90;;;;;;5090693;28;20079;-76
2023/05/11 07:45:39;;;;;;;29.70;15.40;;;12.00;99.90;;;;;;5090568;28;20486;-76
2023/05/11 07:48:04;;;;;;;36.67;16.38;;;12.10;99.90;;;;;;5073262;28;20249;-76
2023/05/11 07:50:30;;;;;;;25.05;14.48;;;12.30;99.90;;;;;;5090395;28;20387;-76
2023/05/11 07:52:56;;;;;;;29.23;14.40;;;12.40;99.90;;;;;;5090296;28;20494;-76
2023/05/11 07:55:24;;;;;;;17.92;11.38;;;12.50;99.90;;;;;;5089962;28;20043;-76
2023/05/11 07:57:53;;;;;;;19.50;11.88;;;12.60;99.90;;;;;;5090113;28;20032;-76
2023/05/11 08:00:19;;;;;;;19.83;11.30;;;12.60;99.90;;;;;;5093341;28;20085;-76
2023/05/11 08:02:44;;;;;;;15.40;10.30;;;12.60;99.90;;;;;;5094254;28;20036;-76
2023/05/11 08:05:10;;;;;;;17.77;10.32;;;12.70;99.90;;;;;;5094119;28;20453;-76
2023/05/11 08:07:36;;;;;;;16.02;10.55;;;12.70;99.90;;;;;;5093867;28;20040;-76
2023/05/11 08:10:01;;;;;;;15.05;9.77;;;12.70;99.90;;;;;;5093990;28;20406;-76
2023/05/11 08:12:27;;;;;;;12.00;8.05;;;12.70;99.90;;;;;;5094338;28;20044;-77
2023/05/11 08:14:53;;;;;;;7.43;5.88;;;12.80;99.90;;;;;;5093905;28;20036;-76
2023/05/11 08:17:18;;;;;;;8.98;6.70;;;12.80;99.90;;;;;;5093621;28;20036;-76
2023/05/11 08:19:44;;;;;;;9.30;6.18;;;12.80;99.90;;;;;;5093906;28;20062;-76
2023/05/11 08:22:09;;;;;;;11.13;6.60;;;12.80;99.90;;;;;;5093797;28;20070;-76
2023/05/11 08:24:35;;;;;;;8.30;6.03;;;12.90;99.90;;;;;;5093777;28;20539;-76
2023/05/11 08:27:01;;;;;;;6.70;5.00;;;12.90;99.90;;;;;;5093506;28;20039;-76
2023/05/11 08:29:27;;;;;;;6.35;4.88;;;13.00;99.90;;;;;;5093975;28;20101;-76
2023/05/11 08:31:53;;;;;;;5.80;4.03;;;13.00;99.90;;;;;;5093701;28;20035;-76
2023/05/11 08:34:18;;;;;;;6.10;4.32;;;13.00;99.90;;;;;;5093668;28;20048;-76
2023/05/11 08:36:44;;;;;;;6.10;4.00;;;13.10;99.90;;;;;;5093321;28;20028;-76
2023/05/11 08:39:10;;;;;;;5.53;3.92;;;13.20;99.90;;;;;;5093434;28;20569;-77
2023/05/11 08:41:35;;;;;;;5.70;4.07;;;13.40;99.90;;;;;;5093819;28;20043;-76
2023/05/11 08:44:02;;;;;;;6.10;4.45;;;13.50;99.90;;;;;;5093465;28;20039;-76
2023/05/11 08:46:29;;;;;;;5.43;4.20;;;13.60;99.90;;;;;;5093082;28;20119;-76
2023/05/11 08:48:56;;;;;;;5.95;4.35;;;13.80;99.90;;;;;;5093417;28;20043;-77
2023/05/11 08:51:22;;;;;;;5.50;4.25;;;14.10;99.90;;;;;;5093325;28;20516;-76
2023/05/11 08:53:48;;;;;;;5.60;4.13;;;14.30;99.90;;;;;;5093222;28;20036;-76
2023/05/11 08:56:14;;;;;;;5.97;4.70;;;14.40;99.90;;;;;;5092781;28;20036;-76
2023/05/11 08:58:41;;;;;;;7.47;4.88;;;14.50;99.90;;;;;;5093531;28;20387;-76
2023/05/11 09:01:10;;;;;;;7.43;5.80;;;14.50;99.90;;;;;;5093180;28;20047;-77
2023/05/11 09:03:38;;;;;;;5.65;4.90;;;14.50;99.90;;;;;;5076313;28;20317;-77
2023/05/11 09:06:07;;;;;;;7.03;5.43;;;14.60;99.90;;;;;;5092751;28;20047;-77
2023/05/11 09:08:37;;;;;;;8.10;6.05;;;14.70;99.90;;;;;;5092938;28;20478;-77
2023/05/11 09:11:03;;;;;;;9.32;6.93;;;14.90;99.90;;;;;;5074977;28;20055;-77
2023/05/11 09:13:30;;;;;;;9.75;7.32;;;15.20;99.90;;;;;;5092883;28;20040;-77
2023/05/11 09:15:56;;;;;;;5.55;4.95;;;15.70;99.90;;;;;;5092395;28;20048;-77
2023/05/11 09:18:22;;;;;;;4.85;4.32;;;15.90;99.90;;;;;;5092865;28;20071;-76
2023/05/11 09:20:49;;;;;;;5.45;4.75;;;15.80;99.90;;;;;;5092711;28;20075;-77
2023/05/11 09:23:16;;;;;;;6.07;4.88;;;15.80;99.90;;;;;;5092623;28;20039;-77
2023/05/11 09:25:42;;;;;;;6.00;5.28;;;15.90;99.90;;;;;;5092533;28;20080;-77
2023/05/11 09:28:10;;;;;;;5.55;4.75;;;16.00;99.90;;;;;;5092400;28;20269;-77
2023/05/11 09:30:36;;;;;;;5.95;5.38;;;16.10;99.90;;;;;;5092623;28;20032;-77
2023/05/11 09:33:02;;;;;;;6.22;5.63;;;16.20;99.90;;;;;;5092468;28;20043;-77
2023/05/11 09:35:32;;;;;;;6.72;5.93;;;16.20;99.90;;;;;;5092358;28;21403;-77
2023/05/11 09:38:08;;;;;;;7.05;6.38;;;16.30;99.90;;;;;;5092161;28;20048;-77
2023/05/11 09:40:39;;;;;;;6.30;5.70;;;16.50;99.90;;;;;;5092384;28;20044;-77
2023/05/11 09:43:19;;;;;;;6.90;6.22;;;16.70;99.90;;;;;;5075731;28;20040;-77
2023/05/11 09:45:50;;;;;;;5.80;5.03;;;16.90;99.90;;;;;;5092251;28;20079;-78
2023/05/11 09:48:15;;;;;;;4.72;4.32;;;17.10;99.90;;;;;;5092214;28;20036;-78
2023/05/11 09:50:41;;;;;;;3.97;3.42;;;17.00;99.90;;;;;;5092421;28;20048;-77
2023/05/11 09:53:07;;;;;;;3.40;3.10;;;17.20;99.90;;;;;;5075207;28;20135;-77
2023/05/11 09:55:33;;;;;;;5.32;3.70;;;17.10;99.90;;;;;;5075108;28;20122;-77
2023/05/11 09:57:59;;;;;;;3.40;2.92;;;17.10;99.90;;;;;;5091891;28;20036;-77
2023/05/11 10:00:25;;;;;;;3.20;2.90;;;17.20;99.90;;;;;;5092137;28;20066;-77
2023/05/11 10:03:05;;;;;;;3.63;3.03;;;17.30;99.90;;;;;;5075344;28;20397;-77
2023/05/11 10:05:33;;;;;;;3.88;3.42;;;17.70;99.90;;;;;;5091855;28;20048;-77
2023/05/11 10:08:04;;;;;;;2.97;2.60;;;18.20;99.90;;;;;;5074778;28;20075;-78
2023/05/11 10:10:32;;;;;;;2.20;1.95;;;18.40;99.90;;;;;;5091831;28;20494;-77
2023/05/11 10:13:02;;;;;;;2.60;2.40;;;18.30;99.90;;;;;;5091746;28;20047;-77
2023/05/11 10:15:31;;;;;;;3.53;2.30;;;18.20;99.90;;;;;;5091427;28;20047;-77
2023/05/11 10:17:59;;;;;;;2.40;2.20;;;18.00;99.90;;;;;;5061072;22;20050;-74
2023/05/11 10:20:25;;;;;;;2.42;2.00;;;17.80;99.90;;;;;;5015196;28;20502;-75
2023/05/11 10:22:56;;;;;;;3.05;2.25;;;17.50;99.90;;;;;;4998224;28;20120;-75
2023/05/11 10:25:23;;;;;;;2.80;2.10;;;17.30;99.90;;;;;;5014833;28;20037;-75
2023/05/11 10:27:50;;;;;;;2.53;2.10;;;17.20;99.90;;;;;;5011207;28;20435;-75
2023/05/11 10:30:16;;;;;;;2.92;2.17;;;17.20;99.90;;;;;;4995307;28;20060;-75
2023/05/11 10:32:46;;;;;;;2.45;2.25;;;17.20;99.90;;;;;;4995100;28;20046;-75
2023/05/11 10:35:12;;;;;;;2.03;1.50;;;17.40;99.90;;;;;;4995260;28;20042;-75
2023/05/11 10:37:39;;;;;;;1.90;1.80;;;17.60;99.90;;;;;;4978878;28;20428;-75
2023/05/11 10:40:06;;;;;;;2.00;1.90;;;17.80;99.90;;;;;;4979312;28;20041;-75
2023/05/11 10:42:55;;;;;;;2.47;2.00;;;17.90;99.90;;;;;;4978885;28;20042;-75
2023/05/11 10:45:50;;;;;;;1.98;1.77;;;17.80;99.90;;;;;;4995127;28;20056;-75
2023/05/11 10:48:43;;;;;;;1.70;1.60;;;17.70;99.90;;;;;;4978646;28;20492;-75
2023/05/11 10:51:28;;;;;;;2.40;2.20;;;17.50;99.90;;;;;;4995024;28;20050;-75
2023/05/11 10:54:21;;;;;;;3.08;2.78;;;17.40;99.90;;;;;;4994592;28;20670;-75
2023/05/11 10:57:28;;;;;;;2.60;2.40;;;17.10;99.90;;;;;;4994633;28;20088;-74
2023/05/11 11:00:34;;;;;;;2.90;2.00;;;16.90;99.90;;;;;;4994909;28;20049;-76
2023/05/11 11:03:29;;;;;;;2.25;2.05;;;16.70;99.90;;;;;;4994719;28;20500;-76
2023/05/11 11:05:55;;;;;;;1.80;1.70;;;16.60;99.90;;;;;;4977340;28;20141;-75
2023/05/11 11:08:21;;;;;;;2.15;1.95;;;16.60;99.90;;;;;;4978947;28;20077;-75
2023/05/11 11:10:48;;;;;;;2.15;1.95;;;16.80;99.90;;;;;;4994771;28;20538;-75
2023/05/11 11:13:16;;;;;;;2.00;1.80;;;17.10;99.90;;;;;;4978313;28;20050;-75
2023/05/11 11:15:57;;;;;;;3.10;2.13;;;17.30;99.90;;;;;;4978508;28;20045;-75
2023/05/11 11:18:24;;;;;;;2.15;1.95;;;17.40;99.90;;;;;;4994781;28;20041;-75
2023/05/11 11:20:54;;;;;;;2.42;2.22;;;17.50;99.90;;;;;;4978482;28;20077;-75
2023/05/11 11:23:42;;;;;;;2.28;2.08;;;17.70;99.90;;;;;;5011038;28;20038;-75
2023/05/11 11:26:15;;;;;;;1.98;1.85;;;17.60;99.90;;;;;;5012040;28;20042;-75
2023/05/11 11:28:53;;;;;;;;;;;17.40;99.90;;;;;;4994871;28;20045;-75
2023/05/11 11:31:26;;;;;;;1.88;1.77;;;17.40;99.90;;;;;;4978104;28;19972;-75
2023/05/11 11:33:57;;;;;;;1.70;1.60;;;17.40;99.90;;;;;;4994967;28;20037;-75
2023/05/11 11:36:54;;;;;;;1.17;1.10;;;17.50;99.90;;;;;;4998125;28;20420;-75
2023/05/11 11:39:25;;;;;;;1.33;1.00;;;17.70;99.90;;;;;;4997942;28;20057;-75
2023/05/11 11:42:05;;;;;;;1.20;1.10;;;17.60;99.90;;;;;;4982324;28;20052;-75
2023/05/11 11:44:34;;;;;;;2.38;1.48;;;17.30;99.90;;;;;;4998463;28;20050;-75
2023/05/11 11:47:18;;;;;;;2.42;1.40;;;17.10;99.90;;;;;;4998101;28;20404;-75
2023/05/11 11:49:46;;;;;;;2.33;2.08;;;17.00;99.90;;;;;;4998342;28;20077;-75
2023/05/11 11:52:33;;;;;;;2.03;1.70;;;17.10;99.90;;;;;;4981830;28;20125;-75
2023/05/11 11:55:03;;;;;;;1.75;1.65;;;17.00;99.90;;;;;;4997892;28;20107;-75
2023/05/11 11:57:32;;;;;;;1.90;1.67;;;17.10;99.90;;;;;;4998095;28;20404;-76
2023/05/11 12:00:06;;;;;;;2.17;1.98;;;17.00;99.90;;;;;;4998262;28;20049;-75
2023/05/11 12:02:36;;;;;;;1.92;1.70;;;17.10;99.90;;;;;;4998194;28;20041;-75
2023/05/11 12:05:12;;;;;;;1.50;1.40;;;17.20;99.90;;;;;;4997852;28;20627;-75
2023/05/11 12:07:42;;;;;;;1.50;1.40;;;17.40;99.90;;;;;;4997989;28;20388;-75
2023/05/11 12:10:10;;;;;;;2.50;1.40;;;17.40;99.90;;;;;;4997233;28;20418;-75
2023/05/11 12:12:40;;;;;;;2.03;1.30;;;17.50;99.90;;;;;;4998122;28;20389;-76
2023/05/11 12:15:06;;;;;;;1.70;1.30;;;17.60;99.90;;;;;;4981363;28;20169;-75
2023/05/11 12:17:37;;;;;;;1.77;1.67;;;17.70;99.90;;;;;;4981005;28;20077;-75
2023/05/11 12:20:12;;;;;;;2.15;1.77;;;17.90;99.90;;;;;;4997546;28;20494;-75
2023/05/11 12:22:38;;;;;;;1.95;1.70;;;18.00;99.90;;;;;;4981528;28;20073;-75
2023/05/11 12:25:11;;;;;;;1.85;1.75;;;18.10;99.90;;;;;;4996874;28;20034;-75
2023/05/11 12:27:57;;;;;;;1.60;1.50;;;18.10;99.90;;;;;;4997240;28;20045;-76
2023/05/11 12:30:30;;;;;;;1.90;1.80;;;18.00;99.90;;;;;;4997364;28;20416;-75
2023/05/11 12:32:59;;;;;;;2.50;2.30;;;17.80;99.90;;;;;;4981263;28;20128;-75
2023/05/11 12:35:32;;;;;;;3.03;2.72;;;17.80;99.90;;;;;;4981235;28;20084;-75
2023/05/11 12:38:03;;;;;;;3.75;3.25;;;17.90;99.90;;;;;;4981100;28;20042;-75
2023/05/11 12:40:34;;;;;;;4.13;3.65;;;18.00;99.90;;;;;;4981019;28;20049;-75